sensor_id;sensor_type;location;lat;lon;timestamp;P1;durP1;ratioP1;P2;durP2;ratioP2
78116;SDS011;69042;59.120;37.904;2023-07-29T00:02:12;10.20;;;4.43;;
78116;SDS011;69042;59.120;37.904;2023-07-29T00:04:38;9.57;;;4.43;;
78116;SDS011;69042;59.120;37.904;2023-07-29T00:07:04;8.82;;;4.43;;
78116;SDS011;69042;59.120;37.904;2023-07-29T00:09:30;9.27;;;4.25;;
78116;SDS011;69042;59.120;37.904;2023-07-29T00:11:56;8.18;;;4.28;;
78116;SDS011;69042;59.120;37.904;2023-07-29T00:14:22;7.15;;;3.80;;
78116;SDS011;69042;59.120;37.904;2023-07-29T00:16:48;8.35;;;3.83;;
78116;SDS011;69042;59.120;37.904;2023-07-29T00:19:14;7.47;;;3.55;;
78116;SDS011;69042;59.120;37.904;2023-07-29T00:21:40;9.00;;;3.78;;
78116;SDS011;69042;59.120;37.904;2023-07-29T00:24:07;8.02;;;3.40;;
78116;SDS011;69042;59.120;37.904;2023-07-29T00:26:33;8.02;;;3.67;;
78116;SDS011;69042;59.120;37.904;2023-07-29T00:29:00;8.18;;;3.85;;
78116;SDS011;69042;59.120;37.904;2023-07-29T00:31:27;8.65;;;3.85;;
78116;SDS011;69042;59.120;37.904;2023-07-29T00:33:53;6.43;;;3.80;;
78116;SDS011;69042;59.120;37.904;2023-07-29T00:36:19;8.98;;;3.78;;
78116;SDS011;69042;59.120;37.904;2023-07-29T00:38:46;7.97;;;3.67;;
78116;SDS011;69042;59.120;37.904;2023-07-29T00:41:12;6.57;;;3.85;;
78116;SDS011;69042;59.120;37.904;2023-07-29T00:43:41;8.98;;;4.05;;
78116;SDS011;69042;59.120;37.904;2023-07-29T00:46:08;7.82;;;4.22;;
78116;SDS011;69042;59.120;37.904;2023-07-29T00:51:27;7.80;;;3.70;;
78116;SDS011;69042;59.120;37.904;2023-07-29T00:53:56;6.32;;;3.67;;
78116;SDS011;69042;59.120;37.904;2023-07-29T00:56:22;6.40;;;3.47;;
78116;SDS011;69042;59.120;37.904;2023-07-29T00:58:48;8.07;;;3.70;;
78116;SDS011;69042;59.120;37.904;2023-07-29T01:01:15;7.00;;;3.53;;
78116;SDS011;69042;59.120;37.904;2023-07-29T01:03:41;6.80;;;3.50;;
78116;SDS011;69042;59.120;37.904;2023-07-29T01:06:12;6.90;;;3.53;;
78116;SDS011;69042;59.120;37.904;2023-07-29T01:09:01;8.25;;;4.32;;
78116;SDS011;69042;59.120;37.904;2023-07-29T01:11:41;8.20;;;4.18;;
78116;SDS011;69042;59.120;37.904;2023-07-29T01:15:14;6.95;;;4.10;;
78116;SDS011;69042;59.120;37.904;2023-07-29T01:17:29;6.43;;;3.70;;
78116;SDS011;69042;59.120;37.904;2023-07-29T01:22:40;8.32;;;3.80;;
78116;SDS011;69042;59.120;37.904;2023-07-29T01:25:07;7.80;;;3.80;;
78116;SDS011;69042;59.120;37.904;2023-07-29T01:27:33;7.88;;;4.00;;
78116;SDS011;69042;59.120;37.904;2023-07-29T01:30:00;8.40;;;3.75;;
78116;SDS011;69042;59.120;37.904;2023-07-29T01:35:13;9.77;;;5.22;;
78116;SDS011;69042;59.120;37.904;2023-07-29T01:37:41;9.40;;;4.32;;
78116;SDS011;69042;59.120;37.904;2023-07-29T01:40:13;7.78;;;4.28;;
78116;SDS011;69042;59.120;37.904;2023-07-29T01:42:39;10.90;;;4.65;;
78116;SDS011;69042;59.120;37.904;2023-07-29T01:45:06;9.85;;;4.35;;
78116;SDS011;69042;59.120;37.904;2023-07-29T01:47:32;6.88;;;4.00;;
78116;SDS011;69042;59.120;37.904;2023-07-29T01:49:58;8.35;;;3.92;;
78116;SDS011;69042;59.120;37.904;2023-07-29T01:52:24;7.40;;;3.97;;
78116;SDS011;69042;59.120;37.904;2023-07-29T01:54:50;7.65;;;3.70;;
78116;SDS011;69042;59.120;37.904;2023-07-29T01:57:16;9.23;;;4.28;;
78116;SDS011;69042;59.120;37.904;2023-07-29T01:59:43;8.68;;;4.05;;
78116;SDS011;69042;59.120;37.904;2023-07-29T02:02:09;9.80;;;3.95;;
78116;SDS011;69042;59.120;37.904;2023-07-29T02:04:35;10.90;;;4.20;;
78116;SDS011;69042;59.120;37.904;2023-07-29T02:07:02;9.68;;;4.10;;
78116;SDS011;69042;59.120;37.904;2023-07-29T02:09:28;7.57;;;3.50;;
78116;SDS011;69042;59.120;37.904;2023-07-29T02:11:56;9.95;;;4.65;;
78116;SDS011;69042;59.120;37.904;2023-07-29T02:14:23;8.80;;;3.85;;
78116;SDS011;69042;59.120;37.904;2023-07-29T02:16:49;9.93;;;4.38;;
78116;SDS011;69042;59.120;37.904;2023-07-29T02:19:15;11.98;;;4.10;;
78116;SDS011;69042;59.120;37.904;2023-07-29T02:21:42;10.13;;;4.13;;
78116;SDS011;69042;59.120;37.904;2023-07-29T02:24:08;8.13;;;3.70;;
78116;SDS011;69042;59.120;37.904;2023-07-29T02:26:34;12.68;;;4.88;;
78116;SDS011;69042;59.120;37.904;2023-07-29T02:29:01;11.75;;;4.22;;
78116;SDS011;69042;59.120;37.904;2023-07-29T02:31:27;10.93;;;4.05;;
78116;SDS011;69042;59.120;37.904;2023-07-29T02:33:53;11.60;;;4.43;;
78116;SDS011;69042;59.120;37.904;2023-07-29T02:36:20;10.38;;;3.83;;
78116;SDS011;69042;59.120;37.904;2023-07-29T02:38:46;16.15;;;4.30;;
78116;SDS011;69042;59.120;37.904;2023-07-29T02:41:13;10.73;;;4.50;;
78116;SDS011;69042;59.120;37.904;2023-07-29T02:43:41;10.40;;;4.50;;
78116;SDS011;69042;59.120;37.904;2023-07-29T02:46:08;9.77;;;4.30;;
78116;SDS011;69042;59.120;37.904;2023-07-29T02:48:35;9.85;;;4.22;;
78116;SDS011;69042;59.120;37.904;2023-07-29T02:51:01;13.10;;;4.60;;
78116;SDS011;69042;59.120;37.904;2023-07-29T02:53:27;10.23;;;4.57;;
78116;SDS011;69042;59.120;37.904;2023-07-29T02:55:53;12.52;;;4.32;;
78116;SDS011;69042;59.120;37.904;2023-07-29T02:58:20;11.05;;;4.70;;
78116;SDS011;69042;59.120;37.904;2023-07-29T03:00:46;12.15;;;4.40;;
78116;SDS011;69042;59.120;37.904;2023-07-29T03:03:14;9.77;;;4.25;;
78116;SDS011;69042;59.120;37.904;2023-07-29T03:05:40;8.77;;;3.70;;
78116;SDS011;69042;59.120;37.904;2023-07-29T03:08:06;7.43;;;4.13;;
78116;SDS011;69042;59.120;37.904;2023-07-29T03:10:34;9.80;;;4.13;;
78116;SDS011;69042;59.120;37.904;2023-07-29T03:13:01;9.32;;;3.85;;
78116;SDS011;69042;59.120;37.904;2023-07-29T03:15:27;7.28;;;3.63;;
78116;SDS011;69042;59.120;37.904;2023-07-29T03:17:53;12.82;;;3.85;;
78116;SDS011;69042;59.120;37.904;2023-07-29T03:20:20;13.98;;;3.85;;
78116;SDS011;69042;59.120;37.904;2023-07-29T03:22:46;9.13;;;3.90;;
78116;SDS011;69042;59.120;37.904;2023-07-29T03:25:13;10.70;;;4.00;;
78116;SDS011;69042;59.120;37.904;2023-07-29T03:27:39;9.25;;;3.78;;
78116;SDS011;69042;59.120;37.904;2023-07-29T03:30:06;8.02;;;3.63;;
78116;SDS011;69042;59.120;37.904;2023-07-29T03:32:33;8.82;;;3.55;;
78116;SDS011;69042;59.120;37.904;2023-07-29T03:34:59;9.05;;;3.85;;
78116;SDS011;69042;59.120;37.904;2023-07-29T03:37:25;7.97;;;4.03;;
78116;SDS011;69042;59.120;37.904;2023-07-29T03:39:51;9.43;;;3.75;;
78116;SDS011;69042;59.120;37.904;2023-07-29T03:42:18;7.47;;;3.45;;
78116;SDS011;69042;59.120;37.904;2023-07-29T03:44:44;10.57;;;3.70;;
78116;SDS011;69042;59.120;37.904;2023-07-29T03:47:10;10.48;;;3.58;;
78116;SDS011;69042;59.120;37.904;2023-07-29T03:52:06;9.32;;;3.45;;
78116;SDS011;69042;59.120;37.904;2023-07-29T03:54:32;7.18;;;3.60;;
78116;SDS011;69042;59.120;37.904;2023-07-29T03:56:58;7.88;;;4.13;;
78116;SDS011;69042;59.120;37.904;2023-07-29T03:59:24;11.90;;;4.13;;
78116;SDS011;69042;59.120;37.904;2023-07-29T04:01:51;8.95;;;3.80;;
78116;SDS011;69042;59.120;37.904;2023-07-29T04:04:17;10.57;;;4.03;;
78116;SDS011;69042;59.120;37.904;2023-07-29T04:06:43;8.30;;;3.92;;
78116;SDS011;69042;59.120;37.904;2023-07-29T04:09:09;10.23;;;4.20;;
78116;SDS011;69042;59.120;37.904;2023-07-29T04:11:35;10.52;;;3.75;;
78116;SDS011;69042;59.120;37.904;2023-07-29T04:14:02;7.35;;;3.75;;
78116;SDS011;69042;59.120;37.904;2023-07-29T04:16:28;9.73;;;4.30;;
78116;SDS011;69042;59.120;37.904;2023-07-29T04:18:54;10.45;;;4.00;;
78116;SDS011;69042;59.120;37.904;2023-07-29T04:21:20;8.93;;;3.53;;
78116;SDS011;69042;59.120;37.904;2023-07-29T04:23:46;8.73;;;4.40;;
78116;SDS011;69042;59.120;37.904;2023-07-29T04:26:13;10.55;;;4.20;;
78116;SDS011;69042;59.120;37.904;2023-07-29T04:28:39;8.93;;;3.92;;
78116;SDS011;69042;59.120;37.904;2023-07-29T04:31:05;9.70;;;4.10;;
78116;SDS011;69042;59.120;37.904;2023-07-29T04:33:32;10.65;;;4.13;;
78116;SDS011;69042;59.120;37.904;2023-07-29T04:35:58;8.52;;;3.75;;
78116;SDS011;69042;59.120;37.904;2023-07-29T04:38:27;14.32;;;5.40;;
78116;SDS011;69042;59.120;37.904;2023-07-29T04:40:56;13.98;;;5.97;;
78116;SDS011;69042;59.120;37.904;2023-07-29T04:43:22;11.18;;;4.40;;
78116;SDS011;69042;59.120;37.904;2023-07-29T04:45:52;13.77;;;5.57;;
78116;SDS011;69042;59.120;37.904;2023-07-29T04:48:19;12.43;;;5.07;;
78116;SDS011;69042;59.120;37.904;2023-07-29T04:50:45;15.23;;;5.78;;
78116;SDS011;69042;59.120;37.904;2023-07-29T04:53:11;12.48;;;5.45;;
78116;SDS011;69042;59.120;37.904;2023-07-29T04:55:37;14.68;;;5.68;;
78116;SDS011;69042;59.120;37.904;2023-07-29T04:58:03;16.48;;;6.57;;
78116;SDS011;69042;59.120;37.904;2023-07-29T05:00:29;14.07;;;7.05;;
78116;SDS011;69042;59.120;37.904;2023-07-29T05:02:55;11.65;;;5.18;;
78116;SDS011;69042;59.120;37.904;2023-07-29T05:05:21;13.57;;;5.68;;
78116;SDS011;69042;59.120;37.904;2023-07-29T05:07:48;12.30;;;5.65;;
78116;SDS011;69042;59.120;37.904;2023-07-29T05:10:14;10.90;;;5.20;;
78116;SDS011;69042;59.120;37.904;2023-07-29T05:12:40;14.35;;;6.05;;
78116;SDS011;69042;59.120;37.904;2023-07-29T05:15:07;19.67;;;7.15;;
78116;SDS011;69042;59.120;37.904;2023-07-29T05:17:33;12.38;;;5.70;;
78116;SDS011;69042;59.120;37.904;2023-07-29T05:19:59;8.57;;;4.72;;
78116;SDS011;69042;59.120;37.904;2023-07-29T05:22:26;10.32;;;5.10;;
78116;SDS011;69042;59.120;37.904;2023-07-29T05:24:52;11.43;;;5.18;;
78116;SDS011;69042;59.120;37.904;2023-07-29T05:27:18;8.05;;;4.47;;
78116;SDS011;69042;59.120;37.904;2023-07-29T05:29:45;10.85;;;5.60;;
78116;SDS011;69042;59.120;37.904;2023-07-29T05:32:11;10.50;;;5.18;;
78116;SDS011;69042;59.120;37.904;2023-07-29T05:34:37;11.07;;;5.15;;
78116;SDS011;69042;59.120;37.904;2023-07-29T05:37:03;13.20;;;5.80;;
78116;SDS011;69042;59.120;37.904;2023-07-29T05:39:29;11.15;;;5.15;;
78116;SDS011;69042;59.120;37.904;2023-07-29T05:41:58;12.45;;;5.07;;
78116;SDS011;69042;59.120;37.904;2023-07-29T05:44:24;11.32;;;5.10;;
78116;SDS011;69042;59.120;37.904;2023-07-29T05:46:50;11.98;;;5.10;;
78116;SDS011;69042;59.120;37.904;2023-07-29T05:49:16;13.15;;;5.70;;
78116;SDS011;69042;59.120;37.904;2023-07-29T05:51:43;12.98;;;5.35;;
78116;SDS011;69042;59.120;37.904;2023-07-29T05:54:09;14.27;;;5.80;;
78116;SDS011;69042;59.120;37.904;2023-07-29T05:56:35;11.63;;;5.43;;
78116;SDS011;69042;59.120;37.904;2023-07-29T05:59:01;10.90;;;5.03;;
78116;SDS011;69042;59.120;37.904;2023-07-29T06:01:28;11.75;;;5.25;;
78116;SDS011;69042;59.120;37.904;2023-07-29T06:03:54;11.60;;;5.22;;
78116;SDS011;69042;59.120;37.904;2023-07-29T06:06:20;9.93;;;5.00;;
78116;SDS011;69042;59.120;37.904;2023-07-29T06:08:49;15.63;;;5.88;;
78116;SDS011;69042;59.120;37.904;2023-07-29T06:11:15;12.82;;;5.43;;
78116;SDS011;69042;59.120;37.904;2023-07-29T06:13:42;13.88;;;5.22;;
78116;SDS011;69042;59.120;37.904;2023-07-29T06:16:08;20.17;;;7.05;;
78116;SDS011;69042;59.120;37.904;2023-07-29T06:18:36;18.75;;;5.78;;
78116;SDS011;69042;59.120;37.904;2023-07-29T06:21:02;14.70;;;5.90;;
78116;SDS011;69042;59.120;37.904;2023-07-29T06:23:33;15.18;;;5.82;;
78116;SDS011;69042;59.120;37.904;2023-07-29T06:26:00;21.13;;;8.40;;
78116;SDS011;69042;59.120;37.904;2023-07-29T06:28:29;18.48;;;6.30;;
78116;SDS011;69042;59.120;37.904;2023-07-29T06:30:55;17.55;;;5.70;;
78116;SDS011;69042;59.120;37.904;2023-07-29T06:33:21;14.77;;;5.80;;
78116;SDS011;69042;59.120;37.904;2023-07-29T06:35:47;12.43;;;5.30;;
78116;SDS011;69042;59.120;37.904;2023-07-29T06:38:13;11.68;;;5.28;;
78116;SDS011;69042;59.120;37.904;2023-07-29T06:40:39;12.48;;;5.63;;
78116;SDS011;69042;59.120;37.904;2023-07-29T06:43:06;10.23;;;5.30;;
78116;SDS011;69042;59.120;37.904;2023-07-29T06:45:32;12.45;;;4.88;;
78116;SDS011;69042;59.120;37.904;2023-07-29T06:47:59;11.45;;;5.10;;
78116;SDS011;69042;59.120;37.904;2023-07-29T06:50:25;11.23;;;4.82;;
78116;SDS011;69042;59.120;37.904;2023-07-29T06:52:51;10.00;;;3.95;;
78116;SDS011;69042;59.120;37.904;2023-07-29T06:55:17;9.85;;;4.47;;
78116;SDS011;69042;59.120;37.904;2023-07-29T06:57:43;7.47;;;4.45;;
78116;SDS011;69042;59.120;37.904;2023-07-29T07:00:09;14.82;;;5.07;;
78116;SDS011;69042;59.120;37.904;2023-07-29T07:02:36;14.23;;;5.45;;
78116;SDS011;69042;59.120;37.904;2023-07-29T07:05:02;15.70;;;5.10;;
78116;SDS011;69042;59.120;37.904;2023-07-29T07:07:28;12.63;;;5.50;;
78116;SDS011;69042;59.120;37.904;2023-07-29T07:09:54;12.27;;;4.75;;
78116;SDS011;69042;59.120;37.904;2023-07-29T07:12:20;15.07;;;5.20;;
78116;SDS011;69042;59.120;37.904;2023-07-29T07:14:47;10.27;;;4.70;;
78116;SDS011;69042;59.120;37.904;2023-07-29T07:17:13;16.60;;;5.40;;
78116;SDS011;69042;59.120;37.904;2023-07-29T07:19:39;13.07;;;5.00;;
78116;SDS011;69042;59.120;37.904;2023-07-29T07:22:05;13.32;;;5.28;;
78116;SDS011;69042;59.120;37.904;2023-07-29T07:24:31;12.57;;;5.15;;
78116;SDS011;69042;59.120;37.904;2023-07-29T07:26:58;12.80;;;4.95;;
78116;SDS011;69042;59.120;37.904;2023-07-29T07:29:24;14.70;;;4.72;;
78116;SDS011;69042;59.120;37.904;2023-07-29T07:31:51;13.45;;;4.57;;
78116;SDS011;69042;59.120;37.904;2023-07-29T07:36:44;12.73;;;4.22;;
78116;SDS011;69042;59.120;37.904;2023-07-29T07:39:11;7.63;;;2.72;;
78116;SDS011;69042;59.120;37.904;2023-07-29T07:41:37;7.07;;;2.50;;
78116;SDS011;69042;59.120;37.904;2023-07-29T07:44:03;5.13;;;2.10;;
78116;SDS011;69042;59.120;37.904;2023-07-29T07:46:29;7.38;;;2.30;;
78116;SDS011;69042;59.120;37.904;2023-07-29T07:48:55;6.35;;;2.72;;
78116;SDS011;69042;59.120;37.904;2023-07-29T07:51:22;6.50;;;3.10;;
78116;SDS011;69042;59.120;37.904;2023-07-29T07:53:48;6.97;;;3.17;;
78116;SDS011;69042;59.120;37.904;2023-07-29T07:56:14;7.57;;;2.88;;
78116;SDS011;69042;59.120;37.904;2023-07-29T07:58:40;7.50;;;2.58;;
78116;SDS011;69042;59.120;37.904;2023-07-29T08:01:07;7.82;;;3.65;;
78116;SDS011;69042;59.120;37.904;2023-07-29T08:03:35;7.57;;;3.00;;
78116;SDS011;69042;59.120;37.904;2023-07-29T08:06:02;6.85;;;2.90;;
78116;SDS011;69042;59.120;37.904;2023-07-29T08:08:28;6.28;;;3.00;;
78116;SDS011;69042;59.120;37.904;2023-07-29T08:10:54;6.68;;;3.10;;
78116;SDS011;69042;59.120;37.904;2023-07-29T08:13:23;8.13;;;3.42;;
78116;SDS011;69042;59.120;37.904;2023-07-29T08:15:50;8.75;;;3.17;;
78116;SDS011;69042;59.120;37.904;2023-07-29T08:18:18;6.00;;;2.92;;
78116;SDS011;69042;59.120;37.904;2023-07-29T08:20:55;7.43;;;3.10;;
78116;SDS011;69042;59.120;37.904;2023-07-29T08:23:26;7.90;;;3.00;;
78116;SDS011;69042;59.120;37.904;2023-07-29T08:25:56;5.82;;;2.78;;
78116;SDS011;69042;59.120;37.904;2023-07-29T08:28:31;6.90;;;3.22;;
78116;SDS011;69042;59.120;37.904;2023-07-29T08:30:58;10.18;;;3.88;;
78116;SDS011;69042;59.120;37.904;2023-07-29T08:33:25;6.82;;;3.67;;
78116;SDS011;69042;59.120;37.904;2023-07-29T08:35:51;7.15;;;2.88;;
78116;SDS011;69042;59.120;37.904;2023-07-29T08:38:17;7.80;;;3.30;;
78116;SDS011;69042;59.120;37.904;2023-07-29T08:40:53;6.80;;;3.00;;
78116;SDS011;69042;59.120;37.904;2023-07-29T08:43:20;6.82;;;3.30;;
78116;SDS011;69042;59.120;37.904;2023-07-29T08:45:49;6.00;;;2.70;;
78116;SDS011;69042;59.120;37.904;2023-07-29T08:48:18;6.35;;;2.85;;
78116;SDS011;69042;59.120;37.904;2023-07-29T08:50:48;7.07;;;2.80;;
78116;SDS011;69042;59.120;37.904;2023-07-29T08:53:15;6.85;;;2.92;;
78116;SDS011;69042;59.120;37.904;2023-07-29T08:55:42;5.35;;;2.70;;
78116;SDS011;69042;59.120;37.904;2023-07-29T08:58:09;5.95;;;3.03;;
78116;SDS011;69042;59.120;37.904;2023-07-29T09:00:36;6.82;;;2.78;;
78116;SDS011;69042;59.120;37.904;2023-07-29T09:03:03;7.55;;;2.90;;
78116;SDS011;69042;59.120;37.904;2023-07-29T09:05:33;8.45;;;3.00;;
78116;SDS011;69042;59.120;37.904;2023-07-29T09:08:00;6.88;;;3.00;;
78116;SDS011;69042;59.120;37.904;2023-07-29T09:10:28;6.90;;;2.97;;
78116;SDS011;69042;59.120;37.904;2023-07-29T09:12:54;6.93;;;3.05;;
78116;SDS011;69042;59.120;37.904;2023-07-29T09:15:30;6.05;;;3.00;;
78116;SDS011;69042;59.120;37.904;2023-07-29T09:17:58;6.95;;;2.80;;
78116;SDS011;69042;59.120;37.904;2023-07-29T09:20:25;7.32;;;3.15;;
78116;SDS011;69042;59.120;37.904;2023-07-29T09:22:57;5.82;;;2.67;;
78116;SDS011;69042;59.120;37.904;2023-07-29T09:25:26;7.78;;;2.60;;
78116;SDS011;69042;59.120;37.904;2023-07-29T09:27:58;12.82;;;2.47;;
78116;SDS011;69042;59.120;37.904;2023-07-29T09:30:26;5.32;;;2.40;;
78116;SDS011;69042;59.120;37.904;2023-07-29T09:32:56;8.32;;;2.58;;
78116;SDS011;69042;59.120;37.904;2023-07-29T09:35:23;8.35;;;4.13;;
78116;SDS011;69042;59.120;37.904;2023-07-29T09:37:51;5.57;;;2.10;;
78116;SDS011;69042;59.120;37.904;2023-07-29T09:40:17;4.75;;;1.90;;
78116;SDS011;69042;59.120;37.904;2023-07-29T09:42:47;5.00;;;1.80;;
78116;SDS011;69042;59.120;37.904;2023-07-29T09:45:20;5.70;;;2.13;;
78116;SDS011;69042;59.120;37.904;2023-07-29T09:47:47;4.45;;;1.67;;
78116;SDS011;69042;59.120;37.904;2023-07-29T09:50:14;5.18;;;1.88;;
78116;SDS011;69042;59.120;37.904;2023-07-29T09:52:40;4.90;;;1.90;;
78116;SDS011;69042;59.120;37.904;2023-07-29T09:55:07;6.63;;;2.70;;
78116;SDS011;69042;59.120;37.904;2023-07-29T09:57:34;5.43;;;2.72;;
78116;SDS011;69042;59.120;37.904;2023-07-29T10:00:01;9.32;;;3.60;;
78116;SDS011;69042;59.120;37.904;2023-07-29T10:02:31;5.60;;;2.85;;
78116;SDS011;69042;59.120;37.904;2023-07-29T10:04:57;7.82;;;2.97;;
78116;SDS011;69042;59.120;37.904;2023-07-29T10:07:25;7.85;;;3.13;;
78116;SDS011;69042;59.120;37.904;2023-07-29T10:09:52;7.38;;;2.88;;
78116;SDS011;69042;59.120;37.904;2023-07-29T10:12:18;7.65;;;3.17;;
78116;SDS011;69042;59.120;37.904;2023-07-29T10:14:45;6.55;;;3.03;;
78116;SDS011;69042;59.120;37.904;2023-07-29T10:17:14;7.00;;;3.08;;
78116;SDS011;69042;59.120;37.904;2023-07-29T10:19:41;5.88;;;2.85;;
78116;SDS011;69042;59.120;37.904;2023-07-29T10:22:10;8.02;;;4.22;;
78116;SDS011;69042;59.120;37.904;2023-07-29T10:24:38;9.38;;;2.90;;
78116;SDS011;69042;59.120;37.904;2023-07-29T10:27:08;6.35;;;3.00;;
78116;SDS011;69042;59.120;37.904;2023-07-29T10:29:38;6.65;;;3.00;;
78116;SDS011;69042;59.120;37.904;2023-07-29T10:32:08;6.72;;;3.10;;
78116;SDS011;69042;59.120;37.904;2023-07-29T10:34:36;5.53;;;3.13;;
78116;SDS011;69042;59.120;37.904;2023-07-29T10:37:04;6.75;;;2.90;;
78116;SDS011;69042;59.120;37.904;2023-07-29T10:39:38;7.13;;;3.03;;
78116;SDS011;69042;59.120;37.904;2023-07-29T10:42:06;5.50;;;2.30;;
78116;SDS011;69042;59.120;37.904;2023-07-29T10:47:21;6.32;;;3.10;;
78116;SDS011;69042;59.120;37.904;2023-07-29T10:49:53;5.30;;;2.50;;
78116;SDS011;69042;59.120;37.904;2023-07-29T10:55:02;5.85;;;2.75;;
78116;SDS011;69042;59.120;37.904;2023-07-29T11:00:07;5.50;;;2.67;;
78116;SDS011;69042;59.120;37.904;2023-07-29T11:02:37;5.45;;;2.45;;
78116;SDS011;69042;59.120;37.904;2023-07-29T11:05:04;5.45;;;2.60;;
78116;SDS011;69042;59.120;37.904;2023-07-29T11:07:45;7.32;;;3.20;;
78116;SDS011;69042;59.120;37.904;2023-07-29T11:10:13;6.10;;;2.88;;
78116;SDS011;69042;59.120;37.904;2023-07-29T11:15:18;5.10;;;2.58;;
78116;SDS011;69042;59.120;37.904;2023-07-29T11:20:23;6.07;;;3.17;;
78116;SDS011;69042;59.120;37.904;2023-07-29T11:22:51;5.85;;;2.60;;
78116;SDS011;69042;59.120;37.904;2023-07-29T11:25:18;6.40;;;2.90;;
78116;SDS011;69042;59.120;37.904;2023-07-29T11:27:45;5.60;;;2.63;;
78116;SDS011;69042;59.120;37.904;2023-07-29T11:30:13;5.22;;;2.83;;
78116;SDS011;69042;59.120;37.904;2023-07-29T11:32:40;5.75;;;2.60;;
78116;SDS011;69042;59.120;37.904;2023-07-29T11:35:08;7.25;;;2.60;;
78116;SDS011;69042;59.120;37.904;2023-07-29T11:40:12;5.50;;;2.97;;
78116;SDS011;69042;59.120;37.904;2023-07-29T11:42:40;4.80;;;2.25;;
78116;SDS011;69042;59.120;37.904;2023-07-29T11:45:07;4.95;;;2.15;;
78116;SDS011;69042;59.120;37.904;2023-07-29T11:47:34;4.65;;;1.75;;
78116;SDS011;69042;59.120;37.904;2023-07-29T11:50:03;4.78;;;1.73;;
78116;SDS011;69042;59.120;37.904;2023-07-29T11:52:31;3.92;;;1.70;;
78116;SDS011;69042;59.120;37.904;2023-07-29T11:55:00;4.90;;;1.83;;
78116;SDS011;69042;59.120;37.904;2023-07-29T11:57:29;4.00;;;1.70;;
78116;SDS011;69042;59.120;37.904;2023-07-29T12:00:03;4.95;;;1.70;;
78116;SDS011;69042;59.120;37.904;2023-07-29T12:02:35;3.97;;;1.50;;
78116;SDS011;69042;59.120;37.904;2023-07-29T12:05:03;4.60;;;1.77;;
78116;SDS011;69042;59.120;37.904;2023-07-29T12:07:31;5.20;;;1.70;;
78116;SDS011;69042;59.120;37.904;2023-07-29T12:09:59;5.43;;;1.90;;
78116;SDS011;69042;59.120;37.904;2023-07-29T12:12:26;5.22;;;1.80;;
78116;SDS011;69042;59.120;37.904;2023-07-29T12:14:53;4.38;;;1.90;;
78116;SDS011;69042;59.120;37.904;2023-07-29T12:17:20;4.97;;;1.83;;
78116;SDS011;69042;59.120;37.904;2023-07-29T12:19:47;3.92;;;1.70;;
78116;SDS011;69042;59.120;37.904;2023-07-29T12:22:17;6.03;;;1.80;;
78116;SDS011;69042;59.120;37.904;2023-07-29T12:24:44;4.28;;;2.00;;
78116;SDS011;69042;59.120;37.904;2023-07-29T12:27:11;5.00;;;2.10;;
78116;SDS011;69042;59.120;37.904;2023-07-29T12:29:42;3.80;;;1.65;;
78116;SDS011;69042;59.120;37.904;2023-07-29T12:32:09;4.22;;;2.00;;
78116;SDS011;69042;59.120;37.904;2023-07-29T12:34:37;4.72;;;2.00;;
78116;SDS011;69042;59.120;37.904;2023-07-29T12:37:05;4.25;;;1.95;;
78116;SDS011;69042;59.120;37.904;2023-07-29T12:39:33;4.30;;;1.60;;
78116;SDS011;69042;59.120;37.904;2023-07-29T12:42:01;7.63;;;2.20;;
78116;SDS011;69042;59.120;37.904;2023-07-29T12:44:35;6.80;;;2.85;;
78116;SDS011;69042;59.120;37.904;2023-07-29T12:47:04;4.80;;;1.75;;
78116;SDS011;69042;59.120;37.904;2023-07-29T12:49:31;4.22;;;1.83;;
78116;SDS011;69042;59.120;37.904;2023-07-29T12:51:58;4.88;;;2.00;;
78116;SDS011;69042;59.120;37.904;2023-07-29T12:54:25;5.35;;;2.70;;
78116;SDS011;69042;59.120;37.904;2023-07-29T12:56:52;5.65;;;2.03;;
78116;SDS011;69042;59.120;37.904;2023-07-29T12:59:18;6.07;;;2.35;;
78116;SDS011;69042;59.120;37.904;2023-07-29T13:01:45;5.63;;;2.90;;
78116;SDS011;69042;59.120;37.904;2023-07-29T13:04:11;5.47;;;1.60;;
78116;SDS011;69042;59.120;37.904;2023-07-29T13:06:38;5.38;;;2.00;;
78116;SDS011;69042;59.120;37.904;2023-07-29T13:09:04;4.85;;;1.60;;
78116;SDS011;69042;59.120;37.904;2023-07-29T13:11:31;5.03;;;1.75;;
78116;SDS011;69042;59.120;37.904;2023-07-29T13:13:58;5.45;;;2.17;;
78116;SDS011;69042;59.120;37.904;2023-07-29T13:16:26;5.70;;;1.50;;
78116;SDS011;69042;59.120;37.904;2023-07-29T13:18:55;4.68;;;1.60;;
78116;SDS011;69042;59.120;37.904;2023-07-29T13:21:22;5.22;;;1.33;;
78116;SDS011;69042;59.120;37.904;2023-07-29T13:23:49;3.70;;;1.40;;
78116;SDS011;69042;59.120;37.904;2023-07-29T13:26:15;3.40;;;1.20;;
78116;SDS011;69042;59.120;37.904;2023-07-29T13:28:41;3.83;;;1.35;;
78116;SDS011;69042;59.120;37.904;2023-07-29T13:31:10;4.43;;;1.45;;
78116;SDS011;69042;59.120;37.904;2023-07-29T13:33:36;3.63;;;1.30;;
78116;SDS011;69042;59.120;37.904;2023-07-29T13:36:03;4.32;;;1.30;;
78116;SDS011;69042;59.120;37.904;2023-07-29T13:38:30;3.70;;;1.30;;
78116;SDS011;69042;59.120;37.904;2023-07-29T13:40:56;5.53;;;1.52;;
78116;SDS011;69042;59.120;37.904;2023-07-29T13:43:22;5.38;;;1.80;;
78116;SDS011;69042;59.120;37.904;2023-07-29T13:45:49;4.43;;;1.90;;
78116;SDS011;69042;59.120;37.904;2023-07-29T13:48:15;4.63;;;1.48;;
78116;SDS011;69042;59.120;37.904;2023-07-29T13:50:42;6.00;;;1.50;;
78116;SDS011;69042;59.120;37.904;2023-07-29T13:53:09;4.93;;;1.55;;
78116;SDS011;69042;59.120;37.904;2023-07-29T13:55:36;5.43;;;1.60;;
78116;SDS011;69042;59.120;37.904;2023-07-29T13:58:02;4.72;;;1.33;;
78116;SDS011;69042;59.120;37.904;2023-07-29T14:00:29;6.78;;;1.98;;
78116;SDS011;69042;59.120;37.904;2023-07-29T14:02:55;4.65;;;1.52;;
78116;SDS011;69042;59.120;37.904;2023-07-29T14:05:21;4.13;;;1.55;;
78116;SDS011;69042;59.120;37.904;2023-07-29T14:07:48;4.57;;;1.40;;
78116;SDS011;69042;59.120;37.904;2023-07-29T14:10:14;3.90;;;1.30;;
78116;SDS011;69042;59.120;37.904;2023-07-29T14:12:40;5.55;;;1.48;;
78116;SDS011;69042;59.120;37.904;2023-07-29T14:15:07;3.90;;;1.63;;
78116;SDS011;69042;59.120;37.904;2023-07-29T14:17:33;4.28;;;1.88;;
78116;SDS011;69042;59.120;37.904;2023-07-29T14:20:00;5.72;;;3.40;;
78116;SDS011;69042;59.120;37.904;2023-07-29T14:22:27;4.38;;;1.58;;
78116;SDS011;69042;59.120;37.904;2023-07-29T14:24:53;4.68;;;1.52;;
78116;SDS011;69042;59.120;37.904;2023-07-29T14:27:22;5.85;;;2.00;;
78116;SDS011;69042;59.120;37.904;2023-07-29T14:29:48;5.30;;;1.98;;
78116;SDS011;69042;59.120;37.904;2023-07-29T14:32:14;5.05;;;1.80;;
78116;SDS011;69042;59.120;37.904;2023-07-29T14:34:41;3.95;;;1.73;;
78116;SDS011;69042;59.120;37.904;2023-07-29T14:37:07;3.47;;;1.40;;
78116;SDS011;69042;59.120;37.904;2023-07-29T14:39:33;4.10;;;1.30;;
78116;SDS011;69042;59.120;37.904;2023-07-29T14:41:59;3.53;;;1.25;;
78116;SDS011;69042;59.120;37.904;2023-07-29T14:44:26;3.70;;;1.33;;
78116;SDS011;69042;59.120;37.904;2023-07-29T14:46:52;3.97;;;1.50;;
78116;SDS011;69042;59.120;37.904;2023-07-29T14:49:19;3.72;;;1.52;;
78116;SDS011;69042;59.120;37.904;2023-07-29T14:51:45;4.90;;;1.40;;
78116;SDS011;69042;59.120;37.904;2023-07-29T14:54:12;6.70;;;1.52;;
78116;SDS011;69042;59.120;37.904;2023-07-29T14:56:38;4.20;;;1.70;;
78116;SDS011;69042;59.120;37.904;2023-07-29T14:59:04;4.60;;;1.70;;
78116;SDS011;69042;59.120;37.904;2023-07-29T15:01:30;6.47;;;1.98;;